Time;durP1;ratioP1;P1;durP2;ratioP2;P2;SDS_P1;SDS_P2;PMS_P1;PMS_P2;Temp;Humidity;BMP_temperature;BMP_pressure;BME280_temperature;BME280_humidity;BME280_pressure;Samples;Min_cycle;Max_cycle;Signal;HPM_P1;HPM_P2
2021/05/03 00:08:40;;;;;;;5.95;4.03;;;;;;;2.83;100.00;99744.84;714528;1202;115021;-71
2021/05/03 00:24:01;;;;;;;6.40;3.70;;;;;;;2.95;100.00;99758.77;714343;1200;114879;-71
2021/05/03 00:39:22;;;;;;;8.08;4.88;;;;;;;3.09;100.00;99774.25;714282;1200;115204;-71
2021/05/03 00:54:42;;;;;;;8.25;4.08;;;;;;;3.29;100.00;99780.72;714310;1199;115282;-70
2021/05/03 01:10:04;;;;;;;12.73;5.88;;;;;;;3.38;100.00;99800.04;714232;1178;113618;-71
2021/05/03 01:25:28;;;;;;;8.38;3.78;;;;;;;3.45;100.00;99813.43;714429;1177;113719;-71
2021/05/03 01:40:49;;;;;;;8.08;3.95;;;;;;;3.57;100.00;99824.76;714406;1199;114493;-71
2021/05/03 01:56:10;;;;;;;6.83;4.30;;;;;;;3.65;100.00;99831.08;714360;1203;114646;-72
2021/05/03 02:11:30;;;;;;;9.83;4.37;;;;;;;3.73;100.00;99840.13;714252;1202;114825;-72
2021/05/03 02:26:50;;;;;;;6.78;3.00;;;;;;;3.77;100.00;99847.59;714045;1200;113921;-72
2021/05/03 02:42:12;;;;;;;6.50;3.37;;;;;;;3.82;100.00;99855.09;714381;1203;114109;-71
2021/05/03 02:57:32;;;;;;;5.83;3.45;;;;;;;3.86;100.00;99872.11;714330;1200;113458;-71
2021/05/03 03:12:53;;;;;;;6.70;3.83;;;;;;;3.86;100.00;99879.08;714094;1200;114882;-72
2021/05/03 03:28:13;;;;;;;8.10;3.45;;;;;;;3.87;100.00;99881.56;714037;1202;115466;-71
2021/05/03 03:43:34;;;;;;;5.98;3.48;;;;;;;3.89;100.00;99897.84;714292;1205;113257;-72
2021/05/03 03:58:56;;;;;;;7.73;4.03;;;;;;;4.00;100.00;99910.14;714409;1198;113278;-71
2021/05/03 04:30:13;;;;;;;5.88;3.55;;;;;;;4.31;100.00;99937.45;714853;1199;114686;-72
2021/05/03 04:45:33;;;;;;;7.78;3.38;;;;;;;4.47;100.00;99952.86;714575;1200;113583;-73
2021/05/03 05:16:12;;;;;;;8.50;4.30;;;;;;;4.80;100.00;99977.47;714735;1196;114038;-75
2021/05/03 05:31:33;;;;;;;6.98;3.15;;;;;;;5.11;100.00;99992.71;714067;1202;114381;-74
2021/05/03 05:46:54;;;;;;;5.35;2.38;;;;;;;5.52;100.00;100007.16;713695;1206;113521;-74
2021/05/03 06:02:14;;;;;;;6.23;3.45;;;;;;;5.79;100.00;100027.78;712544;1203;115056;-74
2021/05/03 06:17:35;;;;;;;6.90;3.03;;;;;;;6.10;100.00;100035.98;713523;1202;114552;-74
2021/05/03 06:32:56;;;;;;;8.67;5.10;;;;;;;6.26;100.00;100042.68;712994;1179;113627;-75
2021/05/03 06:48:17;;;;;;;59.25;29.58;;;;;;;6.64;100.00;100057.23;712992;1202;115097;-71
2021/05/03 07:03:38;;;;;;;10.45;6.50;;;;;;;7.41;100.00;100072.20;714229;1202;115582;-72
2021/05/03 07:18:58;;;;;;;7.30;3.50;;;;;;;7.83;90.96;100092.45;713567;1202;113798;-71
2021/05/03 07:34:18;;;;;;;16.13;8.50;;;;;;;7.91;88.63;100108.34;712910;1201;113834;-71
2021/05/03 07:49:39;;;;;;;16.87;8.40;;;;;;;8.03;82.97;100143.09;713539;1203;113992;-71
2021/05/03 08:05:01;;;;;;;46.10;20.40;;;;;;;8.25;83.42;100149.23;713048;1177;114522;-71
2021/05/03 08:20:22;;;;;;;16.63;9.40;;;;;;;8.37;79.93;100174.38;713876;1202;114775;-71
2021/05/03 08:35:42;;;;;;;10.40;6.70;;;;;;;8.74;83.37;100194.13;713181;1202;115029;-73
2021/05/03 08:51:14;;;;;;;16.13;10.13;;;;;;;8.64;82.77;100207.11;713457;1177;114012;-76
2021/05/03 09:06:35;;;;;;;14.37;6.43;;;;;;;8.35;80.59;100223.32;713934;1202;114441;-76
2021/05/03 09:21:55;;;;;;;20.48;10.00;;;;;;;8.64;83.94;100238.48;713464;1206;114587;-77
2021/05/03 09:37:34;;;;;;;34.10;13.45;;;;;;;8.63;82.04;100245.52;713862;1180;114669;-77
2021/05/03 09:53:11;;;;;;;33.78;19.48;;;;;;;8.99;83.30;100245.27;714124;1202;116049;-77
2021/05/03 10:08:32;;;;;;;13.73;7.53;;;;;;;9.52;82.04;100246.17;713677;1202;113988;-76
2021/05/03 10:23:55;;;;;;;10.45;5.90;;;;;;;9.86;77.31;100254.61;714344;1177;114194;-83
2021/05/03 10:39:35;;;;;;;11.18;6.08;;;;;;;9.80;76.80;100237.60;713984;1179;113721;-83
2021/05/03 10:54:56;;;;;;;9.45;6.08;;;;;;;10.40;76.29;100236.02;714653;1180;113190;-81
2021/05/03 11:10:16;;;;;;;19.83;9.50;;;;;;;10.51;72.23;100237.72;714513;1177;114360;-79
2021/05/03 11:25:37;;;;;;;38.43;13.57;;;;;;;9.88;74.63;100241.38;714701;1202;114655;-80
2021/05/03 11:41:13;;;;;;;10.77;6.83;;;;;;;10.76;74.93;100231.93;714010;1177;115085;-74
2021/05/03 11:56:33;;;;;;;8.15;4.23;;;;;;;10.30;72.19;100228.13;714091;1203;115947;-75
2021/05/03 12:11:58;;;;;;;22.85;11.00;;;;;;;11.06;71.90;100232.77;714835;1202;114523;-74
2021/05/03 12:27:18;;;;;;;8.20;4.48;;;;;;;11.30;71.01;100216.55;714179;1200;114980;-74
2021/05/03 12:42:41;;;;;;;11.57;7.37;;;;;;;10.51;71.83;100216.73;714253;1205;114007;-75
2021/05/03 12:58:15;;;;;;;16.93;9.93;;;;;;;7.58;89.06;100295.41;714637;1202;115218;-75
2021/05/03 13:29:23;;;;;;;69.90;33.33;;;;;;;9.29;95.45;100241.05;714176;1202;115007;-81
2021/05/03 13:44:45;;;;;;;16.73;9.27;;;;;;;11.82;88.68;100218.75;714496;1202;114360;-76
2021/05/03 14:00:07;;;;;;;26.13;16.08;;;;;;;10.07;89.13;100236.20;714091;1203;114413;-79
2021/05/03 14:15:34;;;;;;;18.40;9.60;;;;;;;11.17;92.58;100223.08;714080;1202;115087;-76
2021/05/03 14:31:15;;;;;;;10.63;6.23;;;;;;;11.47;81.72;100207.11;714352;1202;114439;-75
2021/05/03 14:46:40;;;;;;;26.98;13.63;;;;;;;10.47;87.61;100196.01;714442;1202;115933;-75
2021/05/03 15:02:01;;;;;;;28.10;15.65;;;;;;;9.95;84.92;100203.18;714488;1201;115657;-77
2021/05/03 15:48:27;;;;;;;17.20;9.30;;;;;;;9.84;85.53;100201.50;714459;1202;115396;-76
2021/05/03 16:03:48;;;;;;;17.83;8.78;;;;;;;8.00;91.23;100255.69;714207;1201;114568;-75
2021/05/03 16:19:09;;;;;;;19.47;10.13;;;;;;;7.10;99.94;100258.97;714268;1203;113537;-76
2021/05/03 16:34:33;;;;;;;30.48;13.68;;;;;;;7.02;100.00;100262.17;714482;1205;113765;-78
2021/05/03 16:49:53;;;;;;;13.63;8.43;;;;;;;6.90;100.00;100263.05;714199;1202;114567;-76
2021/05/03 17:05:15;;;;;;;19.50;9.57;;;;;;;6.76;100.00;100267.49;713884;1179;113365;-75
2021/05/03 17:20:36;;;;;;;24.17;11.80;;;;;;;6.75;100.00;100252.78;714336;1201;115249;-74
2021/05/03 17:35:59;;;;;;;44.35;18.55;;;;;;;6.65;100.00;100262.20;713834;1202;115729;-76
2021/05/03 17:51:19;;;;;;;24.03;15.30;;;;;;;6.72;100.00;100286.06;714566;1183;114105;-75
2021/05/03 18:06:40;;;;;;;27.85;13.58;;;;;;;6.75;100.00;100302.33;714536;1202;115324;-76
2021/05/03 18:22:06;;;;;;;51.27;24.83;;;;;;;6.68;100.00;100298.51;715220;1203;115479;-77
2021/05/03 18:37:26;;;;;;;68.65;32.35;;;;;;;6.46;100.00;100313.05;714527;1203;113995;-77
2021/05/03 18:52:47;;;;;;;18.15;10.20;;;;;;;6.44;100.00;100309.73;714683;1202;114197;-77
2021/05/03 19:08:08;;;;;;;18.73;9.93;;;;;;;6.63;100.00;100303.21;714503;1185;114336;-78
2021/05/03 19:23:28;;;;;;;20.70;10.20;;;;;;;6.59;100.00;100288.73;715066;1203;114967;-79
2021/05/03 19:38:49;;;;;;;18.30;9.43;;;;;;;6.36;100.00;100306.84;714631;1205;113876;-78
2021/05/03 19:54:25;;;;;;;15.18;7.40;;;;;;;6.04;100.00;100312.48;714499;1206;114173;-75
2021/05/03 20:09:48;;;;;;;15.63;6.88;;;;;;;5.73;100.00;100316.30;714780;1202;115043;-75
2021/05/03 20:25:09;;;;;;;10.33;4.93;;;;;;;5.46;100.00;100312.01;714662;1181;113779;-78
2021/05/03 20:40:30;;;;;;;9.28;4.48;;;;;;;5.30;100.00;100322.59;714868;1180;114272;-77
2021/05/03 20:55:53;;;;;;;19.83;8.20;;;;;;;5.10;100.00;100316.91;714961;1202;114147;-79
2021/05/03 21:11:14;;;;;;;29.43;9.47;;;;;;;4.81;100.00;100306.61;715126;1202;114711;-77
2021/05/03 21:26:34;;;;;;;18.47;8.07;;;;;;;4.55;100.00;100310.03;714882;1205;113812;-76
2021/05/03 21:41:54;;;;;;;13.00;5.75;;;;;;;4.39;100.00;100310.97;717069;1201;114325;-74
2021/05/03 21:57:14;;;;;;;11.87;5.53;;;;;;;4.31;100.00;100315.81;715812;1203;116466;-74
2021/05/03 22:12:36;;;;;;;13.10;5.78;;;;;;;3.94;100.00;100318.87;715703;1203;118029;-75
2021/05/03 23:30:03;;;;;;;18.03;7.38;;;;;;;3.77;100.00;100293.09;714479;1202;113859;-74
2021/05/03 23:45:24;;;;;;;12.55;6.13;;;;;;;3.73;100.00;100284.65;714489;1204;115304;-75
